Time;durP1;ratioP1;P1;durP2;ratioP2;P2;SDS_P1;SDS_P2;PMS_P1;PMS_P2;Temp;Humidity;BMP_temperature;BMP_pressure;BME280_temperature;BME280_humidity;BME280_pressure;Samples;Min_cycle;Max_cycle;Signal;HPM_P1;HPM_P2
2023/09/08 00:00:22;;;;;;;4.35;3.30;;;;;;;20.36;100.00;98650.78;5011190;28;20178;-56
2023/09/08 00:02:47;;;;;;;4.22;3.63;;;;;;;20.42;100.00;98667.69;5011114;28;20567;-56
2023/09/08 00:05:13;;;;;;;4.00;3.63;;;;;;;20.32;100.00;98648.59;5011081;28;20203;-56
2023/09/08 00:07:38;;;;;;;7.13;3.30;;;;;;;20.13;100.00;98626.06;5011110;28;20171;-56
2023/09/08 00:10:04;;;;;;;3.90;3.50;;;;;;;20.25;100.00;98644.97;5011092;28;20177;-56
2023/09/08 00:12:30;;;;;;;4.38;3.20;;;;;;;19.85;100.00;98621.97;5010223;28;20325;-56
2023/09/08 00:14:55;;;;;;;8.45;3.67;;;;;;;19.93;100.00;98642.22;5010557;28;20292;-56
2023/09/08 00:17:20;;;;;;;5.25;3.58;;;;;;;19.87;100.00;98643.66;5010922;28;20252;-56
2023/09/08 00:19:46;;;;;;;6.88;4.03;;;;;;;19.83;100.00;98637.09;5010966;28;20232;-57
2023/09/08 00:22:12;;;;;;;3.80;3.50;;;;;;;19.80;100.00;98618.16;5010941;28;20178;-56
2023/09/08 00:24:37;;;;;;;11.43;3.92;;;;;;;19.85;100.00;98631.66;5010848;28;20193;-56
2023/09/08 00:27:02;;;;;;;4.30;3.33;;;;;;;19.90;100.00;98639.88;5010919;28;20556;-56
2023/09/08 00:29:28;;;;;;;7.20;3.33;;;;;;;19.92;100.00;98644.00;5010336;28;20198;-57
2023/09/08 00:31:53;;;;;;;5.68;3.60;;;;;;;19.84;100.00;98651.00;5010669;28;20266;-57
2023/09/08 00:34:19;;;;;;;4.00;3.60;;;;;;;19.59;100.00;98615.13;5010447;28;20206;-57
2023/09/08 00:36:44;;;;;;;7.78;3.88;;;;;;;19.58;100.00;98631.84;5010871;28;20185;-57
2023/09/08 00:39:09;;;;;;;4.55;3.92;;;;;;;19.46;100.00;98630.47;5010762;28;20182;-56
2023/09/08 00:41:35;;;;;;;6.00;3.25;;;;;;;19.30;100.00;98633.00;5010750;28;20703;-57
2023/09/08 00:44:00;;;;;;;7.30;4.15;;;;;;;19.13;100.00;98615.47;5010718;28;20271;-57
2023/09/08 00:46:27;;;;;;;5.97;3.72;;;;;;;19.14;100.00;98630.22;5010709;28;20179;-57
2023/09/08 00:48:53;;;;;;;4.38;3.70;;;;;;;19.18;100.00;98655.97;5010682;28;20183;-57
2023/09/08 00:51:20;;;;;;;4.68;3.95;;;;;;;18.89;100.00;98617.91;5011402;28;20178;-56
2023/09/08 00:53:45;;;;;;;4.97;3.92;;;;;;;19.11;100.00;98657.56;5014573;28;20184;-56
2023/09/08 00:56:11;;;;;;;7.75;3.60;;;;;;;18.88;100.00;98609.19;5014423;28;20167;-57
2023/09/08 00:58:37;;;;;;;9.38;3.63;;;;;;;19.08;100.00;98628.19;5014358;28;20174;-55
2023/09/08 01:01:02;;;;;;;3.72;3.42;;;;;;;19.01;100.00;98622.72;5014258;28;20705;-55
2023/09/08 01:03:28;;;;;;;5.13;3.97;;;;;;;19.10;100.00;98634.94;5014096;28;20178;-55
2023/09/08 01:05:54;;;;;;;7.10;3.90;;;;;;;18.90;100.00;98602.03;5014240;28;20202;-56
2023/09/08 01:08:20;;;;;;;4.60;3.53;;;;;;;18.98;100.00;98615.19;5014404;28;20193;-56
2023/09/08 01:10:46;;;;;;;7.03;3.80;;;;;;;19.02;100.00;98605.22;5014172;28;20265;-56
2023/09/08 01:13:11;;;;;;;5.07;3.85;;;;;;;19.07;100.00;98619.50;5013145;28;20230;-56
2023/09/08 01:15:37;;;;;;;5.70;4.10;;;;;;;19.24;100.00;98642.28;5014038;28;20203;-56
2023/09/08 01:18:02;;;;;;;5.68;3.33;;;;;;;19.29;100.00;98639.22;5013977;28;20720;-56
2023/09/08 01:20:45;;;;;;;4.85;3.80;;;;;;;19.05;100.00;98616.22;5013956;28;20676;-56
2023/09/08 01:23:49;;;;;;;4.55;4.15;;;;;;;19.17;100.00;98635.16;5013649;28;20179;-56
2023/09/08 01:26:20;;;;;;;7.10;3.97;;;;;;;19.07;100.00;98630.00;4972044;28;20633;-56
2023/09/08 01:28:49;;;;;;;6.95;3.88;;;;;;;18.99;100.00;98618.59;4972305;28;20666;-56
2023/09/08 01:31:16;;;;;;;7.82;3.67;;;;;;;18.86;100.00;98589.34;4972264;28;20196;-56
2023/09/08 01:33:41;;;;;;;8.40;4.32;;;;;;;18.90;100.00;98585.44;4972270;28;20408;-56
2023/09/08 01:36:08;;;;;;;4.80;4.00;;;;;;;18.84;100.00;98588.69;4972071;28;20746;-56
2023/09/08 01:38:33;;;;;;;7.15;3.72;;;;;;;18.79;100.00;98588.31;4952684;29;20299;-56
2023/09/08 01:40:58;;;;;;;6.38;3.78;;;;;;;18.71;100.00;98577.78;4952692;29;20770;-56
2023/09/08 01:43:24;;;;;;;7.75;3.80;;;;;;;18.86;100.00;98612.94;4952760;29;20189;-56
2023/09/08 01:45:49;;;;;;;5.95;4.07;;;;;;;18.69;100.00;98598.03;4952659;29;20722;-56
2023/09/08 01:48:15;;;;;;;4.55;3.58;;;;;;;18.71;100.00;98604.78;4952619;29;20646;-57
2023/09/08 01:50:40;;;;;;;3.67;3.35;;;;;;;18.62;100.00;98576.03;4952673;29;20243;-57
2023/09/08 01:53:05;;;;;;;5.70;3.58;;;;;;;18.62;100.00;98591.75;4952474;29;20695;-56
2023/09/08 01:55:31;;;;;;;4.35;3.72;;;;;;;18.71;100.00;98610.03;4952337;29;20588;-56
2023/09/08 01:57:56;;;;;;;5.03;3.30;;;;;;;18.71;100.00;98610.03;4967793;28;20198;-56
2023/09/08 02:00:22;;;;;;;7.47;3.95;;;;;;;18.74;100.00;98622.00;4982747;28;20175;-56
2023/09/08 02:02:47;;;;;;;4.50;3.35;;;;;;;18.71;100.00;98604.78;4990876;28;20220;-56
2023/09/08 02:05:13;;;;;;;4.63;3.17;;;;;;;18.59;100.00;98590.25;4991092;28;20199;-56
2023/09/08 02:07:38;;;;;;;4.93;3.83;;;;;;;18.73;100.00;98617.75;4991047;28;20234;-56
2023/09/08 02:10:04;;;;;;;6.78;4.18;;;;;;;18.40;100.00;98579.94;5006584;28;20320;-56
2023/09/08 02:12:30;;;;;;;5.60;3.95;;;;;;;18.28;100.00;98573.25;5012073;28;20608;-56
2023/09/08 02:14:56;;;;;;;4.20;3.67;;;;;;;18.37;100.00;98592.53;5012901;28;20202;-57
2023/09/08 02:17:21;;;;;;;6.15;4.00;;;;;;;18.39;100.00;98612.38;5012896;28;20205;-57
2023/09/08 02:19:47;;;;;;;7.22;3.67;;;;;;;18.35;100.00;98615.41;5012886;28;20523;-56
2023/09/08 02:22:12;;;;;;;5.07;4.00;;;;;;;18.18;100.00;98600.50;5012787;28;20270;-56
2023/09/08 02:24:38;;;;;;;6.60;3.83;;;;;;;18.07;100.00;98569.25;5012826;28;20185;-56
2023/09/08 02:27:03;;;;;;;4.03;3.40;;;;;;;18.29;100.00;98606.31;5012730;28;20182;-56
2023/09/08 02:29:29;;;;;;;5.25;4.47;;;;;;;18.01;100.00;98565.44;5012910;28;20232;-56
2023/09/08 02:31:54;;;;;;;7.00;3.70;;;;;;;18.10;100.00;98582.06;5012886;28;20705;-56
2023/09/08 02:34:19;;;;;;;7.95;3.95;;;;;;;18.01;100.00;98575.09;5012554;28;20261;-57
2023/09/08 02:36:47;;;;;;;4.45;3.75;;;;;;;18.19;100.00;98616.03;5012569;28;20252;-57
2023/09/08 02:39:13;;;;;;;4.55;3.63;;;;;;;18.25;100.00;98630.34;5012439;28;20304;-56
2023/09/08 02:41:39;;;;;;;5.95;3.72;;;;;;;18.30;100.00;98599.31;5012443;28;20261;-57
2023/09/08 02:44:05;;;;;;;4.70;3.78;;;;;;;18.31;100.00;98598.31;5012346;28;20301;-56
2023/09/08 02:46:30;;;;;;;7.35;3.95;;;;;;;18.49;100.00;98612.28;5012324;28;20178;-57
2023/09/08 02:48:56;;;;;;;4.07;3.35;;;;;;;18.30;100.00;98594.06;5012291;28;20212;-56
2023/09/08 02:51:21;;;;;;;6.25;4.20;;;;;;;18.40;100.00;98615.78;5012251;28;20179;-56
2023/09/08 02:53:50;;;;;;;6.72;3.28;;;;;;;18.31;100.00;98608.81;5012527;28;20185;-57
2023/09/08 02:56:15;;;;;;;4.05;3.60;;;;;;;18.47;100.00;98619.50;5012110;28;20194;-57
2023/09/08 02:58:41;;;;;;;5.63;3.65;;;;;;;18.29;100.00;98592.38;5012498;28;20174;-57
2023/09/08 03:01:14;;;;;;;4.55;3.03;;;;;;;18.33;100.00;98599.03;5012085;28;20182;-56
2023/09/08 03:03:41;;;;;;;4.35;3.88;;;;;;;18.50;100.00;98613.94;5012227;28;20187;-56
2023/09/08 03:06:07;;;;;;;8.38;3.75;;;;;;;18.30;100.00;98591.44;5011985;28;20189;-57
2023/09/08 03:08:32;;;;;;;4.75;3.25;;;;;;;18.40;100.00;98608.75;5011971;28;20265;-57
2023/09/08 03:10:59;;;;;;;3.97;3.38;;;;;;;18.45;100.00;98608.31;5011904;28;20276;-57
2023/09/08 03:13:25;;;;;;;4.57;3.63;;;;;;;18.33;100.00;98596.41;5010767;28;20226;-54
2023/09/08 03:15:51;;;;;;;4.72;3.50;;;;;;;18.21;100.00;98577.44;5011309;28;20707;-54
2023/09/08 03:18:17;;;;;;;5.18;3.50;;;;;;;18.42;100.00;98604.19;5011809;28;20178;-56
2023/09/08 03:20:43;;;;;;;4.15;3.10;;;;;;;18.19;100.00;98589.03;5011732;28;20178;-56
2023/09/08 03:23:08;;;;;;;7.78;4.00;;;;;;;18.36;100.00;98606.59;5011687;28;20186;-55
2023/09/08 03:25:34;;;;;;;6.65;3.80;;;;;;;18.30;100.00;98596.69;5011925;28;20193;-56
2023/09/08 03:27:59;;;;;;;5.32;3.60;;;;;;;18.38;100.00;98608.09;5011628;28;20182;-56
2023/09/08 03:30:25;;;;;;;8.30;4.25;;;;;;;18.34;100.00;98601.50;5011897;28;20209;-56
2023/09/08 03:32:50;;;;;;;5.85;4.07;;;;;;;18.34;100.00;98611.97;5011336;28;20241;-56
2023/09/08 03:35:16;;;;;;;5.63;3.58;;;;;;;18.22;100.00;98593.97;5011508;28;20198;-56
2023/09/08 03:37:41;;;;;;;4.90;3.85;;;;;;;18.16;100.00;98597.16;5011497;28;20189;-56
2023/09/08 03:40:07;;;;;;;3.85;3.45;;;;;;;17.99;100.00;98590.09;5011446;28;20254;-56
2023/09/08 03:42:34;;;;;;;4.15;3.40;;;;;;;18.15;100.00;98604.22;5011093;28;20244;-56
2023/09/08 03:45:00;;;;;;;7.82;3.92;;;;;;;17.96;100.00;98585.97;5011063;28;20288;-57
2023/09/08 03:47:25;;;;;;;4.85;4.30;;;;;;;18.12;100.00;98614.19;5028513;28;20586;-57
2023/09/08 03:49:50;;;;;;;4.10;3.80;;;;;;;18.13;100.00;98606.16;5028534;28;20182;-56
2023/09/08 03:52:19;;;;;;;7.70;4.35;;;;;;;18.12;100.00;98620.22;5028532;28;20564;-56
2023/09/08 03:54:46;;;;;;;8.77;4.22;;;;;;;17.87;100.00;98584.25;4969507;28;20219;-57
2023/09/08 03:57:11;;;;;;;7.68;4.03;;;;;;;18.00;100.00;98600.44;4969734;28;20278;-57
2023/09/08 03:59:36;;;;;;;7.75;3.50;;;;;;;17.75;100.00;98585.44;4969748;28;20275;-57
2023/09/08 04:02:02;;;;;;;5.25;3.55;;;;;;;17.90;100.00;98609.34;4969667;28;20211;-56
2023/09/08 04:04:28;;;;;;;5.53;3.80;;;;;;;17.98;100.00;98620.72;4969690;28;20187;-57
2023/09/08 04:06:53;;;;;;;4.15;3.55;;;;;;;17.76;100.00;98601.94;4969637;28;20557;-56
2023/09/08 04:09:18;;;;;;;4.22;3.75;;;;;;;17.73;100.00;98592.59;4969635;28;20188;-57
2023/09/08 04:11:44;;;;;;;5.43;3.47;;;;;;;17.89;100.00;98607.69;4969003;28;20687;-57
2023/09/08 04:14:09;;;;;;;7.10;3.80;;;;;;;17.88;100.00;98603.41;4969556;28;20224;-57
2023/09/08 04:16:34;;;;;;;5.78;3.75;;;;;;;17.95;100.00;98613.16;4969547;28;20597;-56
2023/09/08 04:19:00;;;;;;;6.15;4.10;;;;;;;17.92;100.00;98592.50;4969825;28;20195;-56
2023/09/08 04:21:25;;;;;;;5.60;3.35;;;;;;;18.05;100.00;98620.94;4969593;28;20271;-56
2023/09/08 04:23:51;;;;;;;5.43;3.78;;;;;;;17.88;100.00;98598.16;4950107;29;20191;-56
2023/09/08 04:26:16;;;;;;;5.03;4.05;;;;;;;17.88;100.00;98591.13;4995268;28;20206;-55
2023/09/08 04:28:41;;;;;;;8.10;3.60;;;;;;;18.10;100.00;98637.03;5012424;28;20345;-55
2023/09/08 04:31:07;;;;;;;4.63;3.80;;;;;;;17.97;100.00;98620.88;5012396;28;20333;-56
2023/09/08 04:33:32;;;;;;;5.90;3.70;;;;;;;17.76;100.00;98604.56;5012370;28;20504;-56
2023/09/08 04:35:57;;;;;;;4.05;3.47;;;;;;;18.03;100.00;98649.09;5012264;28;20202;-56
2023/09/08 04:38:23;;;;;;;4.63;4.07;;;;;;;17.87;100.00;98635.78;5012278;28;20281;-57
2023/09/08 04:40:48;;;;;;;6.10;4.20;;;;;;;18.02;100.00;98655.28;5012314;28;20206;-56
2023/09/08 04:43:14;;;;;;;4.72;4.20;;;;;;;17.81;100.00;98621.50;5012195;28;20185;-56
2023/09/08 04:45:39;;;;;;;5.50;3.97;;;;;;;18.07;100.00;98646.03;5012080;28;20575;-56
2023/09/08 04:48:05;;;;;;;4.10;3.67;;;;;;;18.11;100.00;98655.25;5012087;28;20175;-55
2023/09/08 04:50:31;;;;;;;6.47;4.38;;;;;;;17.98;100.00;98635.59;5012050;28;20190;-57
2023/09/08 04:52:56;;;;;;;4.65;4.13;;;;;;;18.02;100.00;98631.72;5012023;28;20174;-57
2023/09/08 04:55:22;;;;;;;5.60;4.32;;;;;;;18.06;100.00;98651.38;5013396;28;20310;-56
2023/09/08 04:57:47;;;;;;;11.70;4.05;;;;;;;17.83;100.00;98619.53;5014381;28;20171;-56
2023/09/08 05:00:13;;;;;;;8.07;3.53;;;;;;;17.83;100.00;98613.50;5014389;28;20209;-56
2023/09/08 05:02:38;;;;;;;4.65;3.55;;;;;;;17.91;100.00;98637.16;5014254;28;20178;-56
2023/09/08 05:05:04;;;;;;;4.72;4.28;;;;;;;17.92;100.00;98638.78;5013978;28;20182;-56
2023/09/08 05:07:29;;;;;;;5.85;3.63;;;;;;;17.92;100.00;98617.84;5014283;28;20253;-56
2023/09/08 05:09:55;;;;;;;6.00;3.70;;;;;;;18.03;100.00;98625.50;5014179;28;20210;-57
2023/09/08 05:12:20;;;;;;;3.85;3.55;;;;;;;18.26;100.00;98652.97;5013406;28;20230;-56
2023/09/08 05:14:45;;;;;;;6.68;3.72;;;;;;;18.28;100.00;98656.25;5013981;28;20202;-57
2023/09/08 05:17:11;;;;;;;5.78;3.90;;;;;;;18.14;100.00;98625.31;5013951;28;20224;-56
2023/09/08 05:19:36;;;;;;;4.75;3.42;;;;;;;18.20;100.00;98633.38;5014081;28;20269;-56
2023/09/08 05:22:02;;;;;;;7.93;3.92;;;;;;;18.31;100.00;98645.47;5013981;28;20656;-56
2023/09/08 05:24:27;;;;;;;5.20;3.90;;;;;;;18.55;100.00;98658.88;5013858;28;20645;-56
2023/09/08 05:26:53;;;;;;;6.28;3.92;;;;;;;18.55;100.00;98649.22;5013842;28;20182;-56
2023/09/08 05:29:18;;;;;;;4.63;3.75;;;;;;;18.61;100.00;98645.16;5014075;28;20182;-56
2023/09/08 05:31:44;;;;;;;4.15;3.55;;;;;;;18.68;100.00;98641.81;5013434;28;20614;-56
2023/09/08 05:34:10;;;;;;;5.15;3.65;;;;;;;18.88;100.00;98652.97;5013308;28;20189;-56
2023/09/08 05:36:37;;;;;;;4.22;3.90;;;;;;;19.12;100.00;98661.03;5013131;28;20205;-57
2023/09/08 05:39:04;;;;;;;8.60;4.30;;;;;;;19.23;100.00;98656.38;5013339;28;20182;-55
2023/09/08 05:41:29;;;;;;;5.70;3.60;;;;;;;19.34;100.00;98645.63;5013668;28;20178;-57
2023/09/08 05:43:54;;;;;;;4.15;3.72;;;;;;;19.50;100.00;98664.13;5013371;28;20269;-55
2023/09/08 05:46:20;;;;;;;6.13;3.83;;;;;;;19.52;100.00;98653.47;5013478;28;20221;-55
2023/09/08 05:48:47;;;;;;;6.75;3.50;;;;;;;19.71;100.00;98671.63;5013382;28;20202;-55
2023/09/08 05:51:13;;;;;;;3.97;3.30;;;;;;;19.66;100.00;98653.72;5013422;28;20178;-55
2023/09/08 05:53:39;;;;;;;5.15;3.97;;;;;;;19.83;100.00;98676.47;5013303;28;20175;-56
2023/09/08 05:56:05;;;;;;;5.38;3.42;;;;;;;19.87;100.00;98658.59;5013206;28;20214;-56
2023/09/08 05:58:31;;;;;;;5.38;3.40;;;;;;;19.95;100.00;98658.63;5013042;28;20493;-56
2023/09/08 06:00:56;;;;;;;7.88;3.60;;;;;;;20.05;100.00;98670.66;5013248;28;20178;-56
2023/09/08 06:03:21;;;;;;;4.10;3.40;;;;;;;20.12;100.00;98682.19;5013125;28;20186;-56
2023/09/08 06:05:47;;;;;;;3.80;3.50;;;;;;;20.19;100.00;98687.66;5013249;28;20190;-56
2023/09/08 06:08:12;;;;;;;4.88;4.07;;;;;;;19.99;100.00;98649.47;5013199;28;20186;-56
2023/09/08 06:10:38;;;;;;;4.53;3.35;;;;;;;20.25;100.00;98676.50;5013072;28;20183;-56
2023/09/08 06:13:04;;;;;;;3.78;3.47;;;;;;;20.40;100.00;98690.69;5013363;28;20539;-57
2023/09/08 06:15:30;;;;;;;7.00;3.97;;;;;;;20.39;100.00;98678.53;5012932;28;20582;-56
2023/09/08 06:17:55;;;;;;;4.13;3.50;;;;;;;20.62;100.00;98698.81;5013155;28;20171;-56
2023/09/08 06:20:21;;;;;;;6.13;4.03;;;;;;;20.59;100.00;98687.78;5012966;28;20174;-57
2023/09/08 06:22:47;;;;;;;4.43;3.78;;;;;;;20.77;100.00;98693.75;5012797;28;20181;-55
2023/09/08 06:25:12;;;;;;;6.78;3.42;;;;;;;20.70;100.00;98679.59;5012867;28;20190;-55
2023/09/08 06:27:38;;;;;;;4.85;3.33;;;;;;;20.86;100.00;98695.41;5012840;28;20171;-56
2023/09/08 06:30:04;;;;;;;7.25;3.60;;;;;;;20.96;100.00;98693.47;5012717;28;20178;-56
2023/09/08 06:32:29;;;;;;;6.43;3.80;;;;;;;21.08;100.00;98698.25;5012686;28;20652;-56
2023/09/08 06:34:54;;;;;;;4.40;3.78;;;;;;;21.15;100.00;98688.72;5012631;28;20237;-57
2023/09/08 06:37:20;;;;;;;4.68;3.70;;;;;;;21.50;100.00;98724.44;5012702;28;20170;-57
2023/09/08 06:39:45;;;;;;;7.82;3.90;;;;;;;21.52;100.00;98707.47;5012602;28;20175;-55
2023/09/08 06:42:11;;;;;;;8.80;3.65;;;;;;;21.59;100.00;98710.25;5012601;28;20180;-55
2023/09/08 06:44:36;;;;;;;5.72;3.75;;;;;;;21.80;100.00;98734.28;5012567;28;20664;-55
2023/09/08 06:47:03;;;;;;;6.03;4.10;;;;;;;21.65;100.00;98701.69;5012500;28;20277;-55
2023/09/08 06:49:28;;;;;;;7.03;3.70;;;;;;;21.96;100.00;98737.72;5011405;28;20186;-56
2023/09/08 06:51:54;;;;;;;7.47;4.03;;;;;;;21.99;100.00;98720.75;5012312;28;20229;-56
2023/09/08 06:54:19;;;;;;;7.28;3.92;;;;;;;22.13;100.00;98722.66;5012205;28;20202;-56
2023/09/08 06:56:45;;;;;;;8.32;3.65;;;;;;;22.30;100.00;98718.97;5012297;28;20178;-56
2023/09/08 06:59:10;;;;;;;5.28;3.67;;;;;;;22.40;100.00;98731.00;5012238;28;20213;-56
2023/09/08 07:01:36;;;;;;;6.75;3.80;;;;;;;22.47;100.00;98723.22;5011913;28;20175;-56
2023/09/08 07:04:02;;;;;;;6.43;3.75;;;;;;;22.56;100.00;98723.00;5011906;28;20186;-56
2023/09/08 07:06:27;;;;;;;6.25;3.38;;;;;;;22.64;100.00;98716.88;5012151;28;20183;-56
2023/09/08 07:08:53;;;;;;;6.05;3.88;;;;;;;22.93;100.00;98731.06;5012182;28;20178;-56
2023/09/08 07:11:30;;;;;;;7.57;3.80;;;;;;;22.99;100.00;98721.63;4995249;27;4340569;-56
2023/09/08 07:13:56;;;;;;;5.03;3.40;;;;;;;23.16;100.00;98733.72;5129284;28;20568;-57
2023/09/08 07:16:21;;;;;;;6.65;3.80;;;;;;;23.01;100.00;98703.81;5129307;27;20239;-56
2023/09/08 07:18:46;;;;;;;6.55;3.65;;;;;;;23.27;100.00;98744.72;5129298;27;20178;-57
2023/09/08 07:21:12;;;;;;;3.60;3.30;;;;;;;23.34;100.00;98744.81;5129206;28;20231;-56
2023/09/08 07:23:38;;;;;;;6.13;3.65;;;;;;;23.30;100.00;98725.06;5128981;28;20174;-57
2023/09/08 07:26:03;;;;;;;6.18;3.90;;;;;;;23.33;100.00;98704.41;5129048;27;20201;-55
2023/09/08 07:28:29;;;;;;;5.85;3.78;;;;;;;23.40;100.00;98709.78;5129088;27;20171;-55
2023/09/08 07:31:01;;;;;;;5.72;3.90;;;;;;;23.49;100.00;98706.06;5128688;28;20213;-55
2023/09/08 07:33:27;;;;;;;6.60;4.13;;;;;;;23.48;100.00;98717.66;5128951;27;20227;-56
2023/09/08 07:35:52;;;;;;;7.45;3.80;;;;;;;23.36;100.00;98704.03;5128909;27;20171;-55
2023/09/08 07:38:17;;;;;;;6.28;4.18;;;;;;;23.54;100.00;98723.03;5128765;28;20175;-58
2023/09/08 07:40:43;;;;;;;3.92;3.25;;;;;;;23.37;79.27;98718.06;5128798;27;20274;-55
2023/09/08 07:43:08;;;;;;;4.30;3.33;;;;;;;23.36;80.58;98708.50;5128655;28;20177;-56
2023/09/08 07:45:33;;;;;;;4.30;4.00;;;;;;;23.43;78.77;98720.00;5128466;28;20178;-56
2023/09/08 07:47:59;;;;;;;7.00;3.78;;;;;;;23.32;77.62;98689.53;5128518;28;20181;-56
2023/09/08 07:50:27;;;;;;;5.85;4.38;;;;;;;23.67;76.23;98724.06;5128399;27;20213;-56
2023/09/08 07:52:54;;;;;;;4.53;3.85;;;;;;;23.70;76.27;98707.03;5128411;27;20179;-56
2023/09/08 07:55:22;;;;;;;16.40;4.50;;;;;;;23.88;76.25;98719.94;5128445;27;20186;-57
2023/09/08 07:57:49;;;;;;;4.10;3.70;;;;;;;23.96;74.67;98704.78;5128302;27;20173;-56
2023/09/08 08:00:17;;;;;;;13.15;11.88;;;;;;;24.01;74.33;98696.34;5128317;27;20178;-55
2023/09/08 08:02:45;;;;;;;9.20;5.57;;;;;;;24.24;73.50;98714.56;5128505;27;20174;-55
2023/09/08 08:05:10;;;;;;;5.43;3.22;;;;;;;24.35;71.20;98732.63;5128154;27;20262;-56
2023/09/08 08:07:36;;;;;;;6.13;3.30;;;;;;;24.35;68.09;98703.50;5128283;27;20643;-55
2023/09/08 08:10:01;;;;;;;3.90;3.53;;;;;;;24.53;65.96;98719.81;5135625;27;20228;-55
2023/09/08 08:12:27;;;;;;;4.07;3.67;;;;;;;24.48;68.28;98724.84;5148753;27;20166;-55
2023/09/08 08:14:53;;;;;;;4.22;3.83;;;;;;;24.41;67.42;98707.22;5148985;27;20192;-56
2023/09/08 08:17:19;;;;;;;3.78;3.47;;;;;;;24.31;68.93;98706.72;5148699;27;20169;-56
2023/09/08 08:19:45;;;;;;;5.65;3.33;;;;;;;24.37;70.15;98712.06;5148558;27;20666;-56
2023/09/08 08:22:10;;;;;;;5.40;3.45;;;;;;;24.42;71.42;98715.00;5138386;27;20246;-56
2023/09/08 08:24:36;;;;;;;5.20;3.67;;;;;;;24.48;70.97;98722.19;5134404;27;20251;-56
2023/09/08 08:27:02;;;;;;;4.07;3.55;;;;;;;24.52;70.65;98714.69;5134762;27;20178;-56
2023/09/08 08:29:28;;;;;;;5.15;3.80;;;;;;;24.43;67.69;98699.94;5134516;27;20395;-56
2023/09/08 08:31:54;;;;;;;7.07;3.67;;;;;;;24.42;68.14;98703.56;5134617;27;20720;-56
2023/09/08 08:34:19;;;;;;;6.45;3.20;;;;;;;24.17;64.77;98680.28;5134922;27;20266;-56
2023/09/08 08:36:45;;;;;;;4.95;3.75;;;;;;;24.37;67.16;98717.38;5134602;27;20498;-56
2023/09/08 08:39:10;;;;;;;5.57;3.60;;;;;;;24.43;66.14;98711.34;5134502;27;20538;-56
2023/09/08 08:41:39;;;;;;;4.38;3.15;;;;;;;24.39;66.13;98673.00;5134406;27;20258;-56
2023/09/08 08:44:07;;;;;;;3.70;3.45;;;;;;;24.66;64.06;98690.88;5134396;27;20552;-56
2023/09/08 08:46:34;;;;;;;4.97;3.47;;;;;;;24.67;64.76;98681.13;5134348;27;20178;-56
2023/09/08 08:49:02;;;;;;;3.50;3.20;;;;;;;24.87;65.36;98704.16;5134259;27;20297;-56
2023/09/08 08:51:29;;;;;;;7.95;4.07;;;;;;;24.99;63.27;98692.06;5134150;27;20219;-56
2023/09/08 08:53:55;;;;;;;4.78;4.00;;;;;;;24.99;62.65;98680.63;5134258;27;20174;-56
2023/09/08 08:56:21;;;;;;;4.43;3.35;;;;;;;25.26;63.77;98714.34;5134203;27;20181;-57
2023/09/08 08:58:48;;;;;;;4.38;2.78;;;;;;;25.19;59.79;98687.75;5134211;27;20211;-56
2023/09/08 09:01:16;;;;;;;5.50;3.92;;;;;;;25.23;60.87;98673.13;5134108;27;20193;-57
2023/09/08 09:03:43;;;;;;;4.18;3.30;;;;;;;25.47;59.61;98709.84;5134001;27;20201;-56
2023/09/08 09:06:10;;;;;;;5.82;3.67;;;;;;;25.50;60.84;98712.13;5133902;27;20270;-57
2023/09/08 09:08:39;;;;;;;4.80;4.38;;;;;;;25.38;61.26;98695.06;5133818;27;20174;-56
2023/09/08 09:11:04;;;;;;;3.70;3.40;;;;;;;25.33;60.74;98702.81;5133340;27;20210;-56
2023/09/08 09:13:29;;;;;;;5.20;3.80;;;;;;;25.25;61.78;98676.44;5134153;27;20687;-56
2023/09/08 09:16:00;;;;;;;5.97;4.30;;;;;;;25.18;62.15;98680.00;5133789;27;20255;-56
2023/09/08 09:18:29;;;;;;;3.95;3.45;;;;;;;25.25;62.28;98688.88;5133739;27;20641;-56
2023/09/08 09:20:56;;;;;;;4.97;3.22;;;;;;;25.17;61.82;98684.50;5133638;27;20170;-56
2023/09/08 09:23:33;;;;;;;5.75;3.53;;;;;;;25.08;62.33;98675.00;5133904;27;20193;-56
2023/09/08 09:25:59;;;;;;;5.97;3.45;;;;;;;25.08;60.02;98690.09;5133740;27;20659;-56
2023/09/08 09:28:25;;;;;;;5.35;3.47;;;;;;;24.81;61.08;98669.66;5133560;27;20182;-56
2023/09/08 09:30:54;;;;;;;5.80;3.35;;;;;;;24.79;60.55;98675.13;5133414;27;20200;-56
2023/09/08 09:33:20;;;;;;;5.93;3.80;;;;;;;24.92;61.64;98685.88;5132426;27;20178;-56
2023/09/08 09:35:49;;;;;;;4.88;3.05;;;;;;;25.06;59.67;98698.22;5133368;27;20223;-56
2023/09/08 09:38:15;;;;;;;3.63;3.30;;;;;;;25.02;58.78;98674.97;5133332;27;20186;-56
2023/09/08 09:40:41;;;;;;;4.05;3.13;;;;;;;25.05;59.58;98667.47;5133261;27;20261;-56
2023/09/08 09:43:07;;;;;;;4.68;3.30;;;;;;;25.24;58.62;98684.56;5133232;27;20174;-56
2023/09/08 09:45:34;;;;;;;4.50;2.95;;;;;;;25.39;59.88;98678.19;5133543;27;20178;-56
2023/09/08 09:47:59;;;;;;;3.60;3.22;;;;;;;25.38;57.47;98671.22;5133108;27;20167;-57
2023/09/08 09:50:43;;;;;;;3.97;3.05;;;;;;;25.58;56.60;98664.25;5132991;27;20251;-57
2023/09/08 09:53:14;;;;;;;3.33;3.10;;;;;;;25.76;55.03;98659.28;5133125;27;20325;-56
2023/09/08 09:55:44;;;;;;;5.45;3.42;;;;;;;25.92;55.41;98672.28;5133043;27;20203;-56
2023/09/08 09:58:11;;;;;;;4.07;3.63;;;;;;;26.01;54.92;98657.81;5133038;27;20583;-57
2023/09/08 10:00:37;;;;;;;5.25;3.28;;;;;;;26.03;55.33;98639.06;5132937;27;20601;-57
2023/09/08 10:03:04;;;;;;;5.90;3.95;;;;;;;26.20;53.37;98637.72;5132580;27;20621;-56
2023/09/08 10:05:30;;;;;;;3.20;2.90;;;;;;;26.44;52.52;98667.22;5132934;27;20270;-57
2023/09/08 10:07:55;;;;;;;8.00;3.10;;;;;;;26.54;54.28;98662.38;5132773;27;20719;-56
2023/09/08 10:10:22;;;;;;;5.68;3.47;;;;;;;26.69;52.84;98668.34;5132632;27;20214;-57
2023/09/08 10:12:57;;;;;;;4.20;3.60;;;;;;;26.61;52.52;98630.53;5132654;27;20170;-55
2023/09/08 10:15:24;;;;;;;6.43;2.88;;;;;;;26.79;51.05;98652.84;5132589;27;20173;-56
2023/09/08 10:17:55;;;;;;;5.88;3.30;;;;;;;26.81;51.11;98629.56;5132565;27;20178;-55
2023/09/08 10:20:23;;;;;;;3.78;2.97;;;;;;;26.79;51.51;98618.31;5132902;27;20280;-55
2023/09/08 10:22:52;;;;;;;6.00;3.08;;;;;;;26.74;49.56;98615.44;5132365;27;20617;-56
2023/09/08 10:25:21;;;;;;;3.83;2.92;;;;;;;26.86;50.05;98640.41;5132736;27;20262;-56
2023/09/08 10:27:48;;;;;;;3.70;3.00;;;;;;;26.81;51.32;98621.59;5132389;27;20206;-57
2023/09/08 10:30:16;;;;;;;6.55;3.22;;;;;;;26.86;51.43;98611.19;5132338;27;20202;-55
2023/09/08 10:32:43;;;;;;;4.40;3.35;;;;;;;26.97;51.40;98634.47;5088816;28;20187;-57
2023/09/08 10:35:09;;;;;;;9.93;3.13;;;;;;;26.69;50.65;98620.53;5088989;28;20191;-57
2023/09/08 10:37:34;;;;;;;3.33;3.05;;;;;;;26.75;49.62;98625.06;5088925;28;20285;-57
2023/09/08 10:40:29;;;;;;;5.07;2.88;;;;;;;26.91;48.85;98640.59;5088797;28;20175;-57
2023/09/08 10:43:11;;;;;;;9.02;3.20;;;;;;;27.01;50.28;98619.75;5088886;28;20180;-57
2023/09/08 10:45:36;;;;;;;3.50;3.17;;;;;;;27.25;50.11;98611.22;5088535;28;20172;-57
2023/09/08 10:48:02;;;;;;;4.28;2.60;;;;;;;27.42;47.01;98599.16;5088721;28;20188;-57
2023/09/08 10:50:35;;;;;;;3.38;2.78;;;;;;;27.64;46.59;98605.84;5088642;28;20207;-57
2023/09/08 10:53:19;;;;;;;3.95;2.65;;;;;;;27.79;46.16;98593.16;5088656;28;20352;-57
2023/09/08 10:55:51;;;;;;;3.42;2.80;;;;;;;28.13;45.93;98619.44;5088637;28;20270;-57
2023/09/08 10:58:39;;;;;;;6.68;2.90;;;;;;;27.98;47.00;98628.72;5088577;28;20188;-55
2023/09/08 11:01:05;;;;;;;6.38;2.92;;;;;;;27.58;47.04;98590.72;5088530;28;20305;-56
2023/09/08 11:03:37;;;;;;;7.95;2.72;;;;;;;27.73;45.72;98615.25;5107123;27;20183;-56
2023/09/08 11:06:03;;;;;;;2.90;2.70;;;;;;;27.57;46.79;98614.88;5131860;27;20252;-56
2023/09/08 11:08:29;;;;;;;3.40;2.92;;;;;;;27.49;47.99;98601.78;5068024;28;20254;-56
2023/09/08 11:10:55;;;;;;;4.50;3.15;;;;;;;27.32;47.97;98588.13;5068137;28;20216;-56
2023/09/08 11:13:21;;;;;;;6.75;2.92;;;;;;;27.46;46.71;98587.06;5068284;28;20192;-56
2023/09/08 11:15:46;;;;;;;4.47;2.90;;;;;;;27.57;46.78;98583.75;5068328;28;20632;-55
2023/09/08 11:18:11;;;;;;;4.10;3.05;;;;;;;27.73;46.10;98588.66;5068134;28;20188;-56
2023/09/08 11:20:37;;;;;;;6.00;2.78;;;;;;;28.04;45.35;98586.09;5068186;28;20325;-57
2023/09/08 11:23:04;;;;;;;2.78;2.58;;;;;;;28.25;44.67;98583.16;5068040;28;20632;-56